sensor_id;sensor_type;location;lat;lon;timestamp;pressure;altitude;pressure_sealevel;temperature;humidity
70506;BME280;58032;49.820;6.274;2024-02-26T00:00:08;95539.66;;;6.21;100.00
70506;BME280;58032;49.820;6.274;2024-02-26T00:02:37;95536.09;;;6.20;100.00
70506;BME280;58032;49.820;6.274;2024-02-26T00:05:08;95537.72;;;6.27;100.00
70506;BME280;58032;49.820;6.274;2024-02-26T00:07:35;95534.22;;;6.17;100.00
70506;BME280;58032;49.820;6.274;2024-02-26T00:10:02;95533.28;;;6.20;100.00
70506;BME280;58032;49.820;6.274;2024-02-26T00:12:29;95535.88;;;6.09;100.00
70506;BME280;58032;49.820;6.274;2024-02-26T00:14:56;95535.59;;;6.07;100.00
70506;BME280;58032;49.820;6.274;2024-02-26T00:17:25;95534.34;;;6.08;100.00
70506;BME280;58032;49.820;6.274;2024-02-26T00:19:52;95537.53;;;6.15;100.00
70506;BME280;58032;49.820;6.274;2024-02-26T00:22:19;95537.22;;;6.13;100.00
70506;BME280;58032;49.820;6.274;2024-02-26T00:24:47;95530.50;;;6.20;100.00
70506;BME280;58032;49.820;6.274;2024-02-26T00:27:13;95529.25;;;6.21;100.00
70506;BME280;58032;49.820;6.274;2024-02-26T00:29:41;95536.75;;;6.30;100.00
70506;BME280;58032;49.820;6.274;2024-02-26T00:32:07;95537.91;;;6.23;100.00
70506;BME280;58032;49.820;6.274;2024-02-26T00:34:35;95535.69;;;6.12;100.00
70506;BME280;58032;49.820;6.274;2024-02-26T00:37:02;95532.34;;;6.23;100.00
70506;BME280;58032;49.820;6.274;2024-02-26T00:39:29;95537.53;;;6.15;100.00
70506;BME280;58032;49.820;6.274;2024-02-26T00:41:56;95529.91;;;6.16;100.00
70506;BME280;58032;49.820;6.274;2024-02-26T00:44:23;95530.94;;;6.04;100.00
70506;BME280;58032;49.820;6.274;2024-02-26T00:46:51;95530.56;;;6.11;100.00
70506;BME280;58032;49.820;6.274;2024-02-26T00:49:18;95530.06;;;5.97;100.00
70506;BME280;58032;49.820;6.274;2024-02-26T00:51:45;95521.47;;;5.86;100.00
70506;BME280;58032;49.820;6.274;2024-02-26T00:54:12;95526.81;;;5.99;100.00
70506;BME280;58032;49.820;6.274;2024-02-26T00:56:39;95524.16;;;5.80;100.00
70506;BME280;58032;49.820;6.274;2024-02-26T00:59:06;95526.75;;;5.84;100.00
70506;BME280;58032;49.820;6.274;2024-02-26T01:01:33;95522.63;;;5.94;100.00
70506;BME280;58032;49.820;6.274;2024-02-26T01:04:00;95519.31;;;5.81;100.00
70506;BME280;58032;49.820;6.274;2024-02-26T01:06:27;95530.28;;;5.69;100.00
70506;BME280;58032;49.820;6.274;2024-02-26T01:08:54;95523.75;;;5.73;100.00
70506;BME280;58032;49.820;6.274;2024-02-26T01:11:21;95526.03;;;5.59;100.00
70506;BME280;58032;49.820;6.274;2024-02-26T01:13:48;95526.72;;;5.69;100.00
70506;BME280;58032;49.820;6.274;2024-02-26T01:16:16;95516.34;;;5.69;100.00
70506;BME280;58032;49.820;6.274;2024-02-26T01:18:43;95520.19;;;5.72;100.00
70506;BME280;58032;49.820;6.274;2024-02-26T01:21:10;95512.25;;;5.55;100.00
70506;BME280;58032;49.820;6.274;2024-02-26T01:23:37;95532.91;;;5.73;100.00
70506;BME280;58032;49.820;6.274;2024-02-26T01:26:04;95517.75;;;5.65;100.00
70506;BME280;58032;49.820;6.274;2024-02-26T01:28:31;95522.03;;;5.51;100.00
70506;BME280;58032;49.820;6.274;2024-02-26T01:30:58;95525.03;;;5.47;100.00
70506;BME280;58032;49.820;6.274;2024-02-26T01:33:26;95522.47;;;5.59;100.00
70506;BME280;58032;49.820;6.274;2024-02-26T01:35:53;95524.41;;;5.67;100.00
70506;BME280;58032;49.820;6.274;2024-02-26T01:38:20;95528.22;;;5.55;100.00
70506;BME280;58032;49.820;6.274;2024-02-26T01:40:47;95522.97;;;5.72;100.00
70506;BME280;58032;49.820;6.274;2024-02-26T01:43:14;95518.69;;;5.47;100.00
70506;BME280;58032;49.820;6.274;2024-02-26T01:45:41;95522.91;;;5.42;100.00
70506;BME280;58032;49.820;6.274;2024-02-26T01:48:08;95523.47;;;5.46;100.00
70506;BME280;58032;49.820;6.274;2024-02-26T01:50:37;95525.97;;;5.44;100.00
70506;BME280;58032;49.820;6.274;2024-02-26T01:53:05;95526.56;;;5.48;100.00
70506;BME280;58032;49.820;6.274;2024-02-26T01:55:33;95523.72;;;5.33;100.00
70506;BME280;58032;49.820;6.274;2024-02-26T01:58:00;95521.53;;;5.37;100.00
70506;BME280;58032;49.820;6.274;2024-02-26T02:00:28;95520.28;;;5.38;100.00
70506;BME280;58032;49.820;6.274;2024-02-26T02:02:55;95523.00;;;5.23;100.00
70506;BME280;58032;49.820;6.274;2024-02-26T02:05:22;95511.53;;;5.21;100.00
70506;BME280;58032;49.820;6.274;2024-02-26T02:07:50;95499.63;;;5.21;100.00
70506;BME280;58032;49.820;6.274;2024-02-26T02:10:19;95508.16;;;5.17;100.00
70506;BME280;58032;49.820;6.274;2024-02-26T02:12:50;95506.75;;;5.22;100.00
70506;BME280;58032;49.820;6.274;2024-02-26T02:15:17;95497.53;;;5.31;100.00
70506;BME280;58032;49.820;6.274;2024-02-26T02:17:44;95502.84;;;5.29;100.00
70506;BME280;58032;49.820;6.274;2024-02-26T02:20:18;95496.94;;;5.27;100.00
70506;BME280;58032;49.820;6.274;2024-02-26T02:22:45;95500.88;;;5.20;100.00
70506;BME280;58032;49.820;6.274;2024-02-26T02:25:13;95486.25;;;5.25;100.00
70506;BME280;58032;49.820;6.274;2024-02-26T02:27:41;95483.38;;;5.19;100.00
70506;BME280;58032;49.820;6.274;2024-02-26T02:30:09;95485.31;;;5.28;100.00
70506;BME280;58032;49.820;6.274;2024-02-26T02:32:39;95478.97;;;5.28;100.00
70506;BME280;58032;49.820;6.274;2024-02-26T02:35:08;95485.59;;;5.06;100.00
70506;BME280;58032;49.820;6.274;2024-02-26T02:37:35;95474.03;;;5.22;100.00
70506;BME280;58032;49.820;6.274;2024-02-26T02:40:04;95481.56;;;5.31;100.00
70506;BME280;58032;49.820;6.274;2024-02-26T02:42:31;95475.69;;;5.29;100.00
70506;BME280;58032;49.820;6.274;2024-02-26T02:44:59;95488.59;;;5.27;100.00
70506;BME280;58032;49.820;6.274;2024-02-26T02:47:26;95473.84;;;5.26;100.00
70506;BME280;58032;49.820;6.274;2024-02-26T02:49:53;95469.66;;;5.06;100.00
70506;BME280;58032;49.820;6.274;2024-02-26T02:52:20;95484.72;;;5.24;100.00
70506;BME280;58032;49.820;6.274;2024-02-26T02:54:47;95478.25;;;5.42;100.00
70506;BME280;58032;49.820;6.274;2024-02-26T02:57:14;95476.59;;;5.11;100.00
70506;BME280;58032;49.820;6.274;2024-02-26T02:59:41;95474.69;;;5.17;100.00
70506;BME280;58032;49.820;6.274;2024-02-26T03:02:07;95482.81;;;5.30;100.00
70506;BME280;58032;49.820;6.274;2024-02-26T03:04:35;95487.84;;;5.41;100.00
70506;BME280;58032;49.820;6.274;2024-02-26T03:07:02;95480.50;;;5.29;100.00
70506;BME280;58032;49.820;6.274;2024-02-26T03:09:29;95480.84;;;5.21;100.00
70506;BME280;58032;49.820;6.274;2024-02-26T03:11:55;95481.50;;;5.16;100.00
70506;BME280;58032;49.820;6.274;2024-02-26T03:14:23;95479.84;;;5.34;100.00
70506;BME280;58032;49.820;6.274;2024-02-26T03:16:50;95487.78;;;5.26;100.00
70506;BME280;58032;49.820;6.274;2024-02-26T03:19:19;95486.09;;;5.29;100.00
70506;BME280;58032;49.820;6.274;2024-02-26T03:21:46;95493.06;;;5.48;100.00
70506;BME280;58032;49.820;6.274;2024-02-26T03:24:13;95496.28;;;5.32;100.00
70506;BME280;58032;49.820;6.274;2024-02-26T03:26:41;95492.56;;;5.35;100.00
70506;BME280;58032;49.820;6.274;2024-02-26T03:29:08;95488.97;;;5.34;100.00
70506;BME280;58032;49.820;6.274;2024-02-26T03:31:35;95489.69;;;5.20;100.00
70506;BME280;58032;49.820;6.274;2024-02-26T03:34:02;95481.91;;;5.48;100.00
70506;BME280;58032;49.820;6.274;2024-02-26T03:36:29;95486.03;;;5.14;100.00
70506;BME280;58032;49.820;6.274;2024-02-26T03:38:56;95488.38;;;5.06;100.00
70506;BME280;58032;49.820;6.274;2024-02-26T03:41:23;95492.25;;;5.33;100.00
70506;BME280;58032;49.820;6.274;2024-02-26T03:43:50;95487.22;;;5.22;100.00
70506;BME280;58032;49.820;6.274;2024-02-26T03:46:17;95491.78;;;5.10;100.00
70506;BME280;58032;49.820;6.274;2024-02-26T03:48:44;95490.25;;;5.09;100.00
70506;BME280;58032;49.820;6.274;2024-02-26T03:51:11;95487.69;;;5.45;100.00
70506;BME280;58032;49.820;6.274;2024-02-26T03:53:38;95491.91;;;5.40;100.00
70506;BME280;58032;49.820;6.274;2024-02-26T03:56:06;95490.81;;;5.37;100.00
70506;BME280;58032;49.820;6.274;2024-02-26T03:58:33;95488.22;;;5.34;100.00
70506;BME280;58032;49.820;6.274;2024-02-26T04:01:00;95488.09;;;5.28;100.00
70506;BME280;58032;49.820;6.274;2024-02-26T04:03:27;95491.97;;;5.06;100.00
70506;BME280;58032;49.820;6.274;2024-02-26T04:05:54;95495.41;;;5.26;100.00
70506;BME280;58032;49.820;6.274;2024-02-26T04:08:21;95500.13;;;5.34;100.00
70506;BME280;58032;49.820;6.274;2024-02-26T04:10:49;95502.41;;;5.21;100.00
70506;BME280;58032;49.820;6.274;2024-02-26T04:13:17;95494.81;;;5.46;100.00
70506;BME280;58032;49.820;6.274;2024-02-26T04:15:44;95499.41;;;5.49;100.00
70506;BME280;58032;49.820;6.274;2024-02-26T04:18:11;95501.22;;;5.37;100.00
70506;BME280;58032;49.820;6.274;2024-02-26T04:20:38;95501.53;;;5.15;100.00
70506;BME280;58032;49.820;6.274;2024-02-26T04:23:05;95502.16;;;5.34;100.00
70506;BME280;58032;49.820;6.274;2024-02-26T04:25:32;95497.16;;;5.38;100.00
70506;BME280;58032;49.820;6.274;2024-02-26T04:27:59;95495.09;;;5.23;100.00
70506;BME280;58032;49.820;6.274;2024-02-26T04:30:26;95501.56;;;5.54;100.00
70506;BME280;58032;49.820;6.274;2024-02-26T04:32:54;95502.13;;;5.43;100.00
70506;BME280;58032;49.820;6.274;2024-02-26T04:35:21;95500.19;;;5.49;100.00
70506;BME280;58032;49.820;6.274;2024-02-26T04:37:48;95506.00;;;5.61;100.00
70506;BME280;58032;49.820;6.274;2024-02-26T04:40:14;95508.91;;;5.66;100.00
70506;BME280;58032;49.820;6.274;2024-02-26T04:42:41;95520.38;;;5.44;100.00
70506;BME280;58032;49.820;6.274;2024-02-26T04:45:08;95507.47;;;5.71;100.00
70506;BME280;58032;49.820;6.274;2024-02-26T04:47:36;95513.25;;;5.82;100.00
70506;BME280;58032;49.820;6.274;2024-02-26T04:50:03;95516.97;;;5.64;100.00
70506;BME280;58032;49.820;6.274;2024-02-26T04:52:30;95517.97;;;5.76;100.00
70506;BME280;58032;49.820;6.274;2024-02-26T04:54:57;95521.63;;;5.67;100.00
70506;BME280;58032;49.820;6.274;2024-02-26T04:57:26;95519.44;;;5.86;100.00
70506;BME280;58032;49.820;6.274;2024-02-26T04:59:53;95518.94;;;6.42;100.00
70506;BME280;58032;49.820;6.274;2024-02-26T05:02:20;95526.75;;;6.53;100.00
70506;BME280;58032;49.820;6.274;2024-02-26T05:04:47;95522.75;;;6.60;100.00
70506;BME280;58032;49.820;6.274;2024-02-26T05:07:14;95536.75;;;6.60;100.00
70506;BME280;58032;49.820;6.274;2024-02-26T05:09:44;95523.44;;;6.70;100.00
70506;BME280;58032;49.820;6.274;2024-02-26T05:12:11;95519.34;;;6.86;100.00
70506;BME280;58032;49.820;6.274;2024-02-26T05:14:39;95526.91;;;6.79;100.00
70506;BME280;58032;49.820;6.274;2024-02-26T05:17:06;95530.19;;;6.63;100.00
70506;BME280;58032;49.820;6.274;2024-02-26T05:19:33;95541.19;;;6.81;100.00
70506;BME280;58032;49.820;6.274;2024-02-26T05:22:00;95538.88;;;6.65;100.00
70506;BME280;58032;49.820;6.274;2024-02-26T05:24:27;95544.06;;;6.27;100.00
70506;BME280;58032;49.820;6.274;2024-02-26T05:26:54;95541.06;;;6.01;100.00
70506;BME280;58032;49.820;6.274;2024-02-26T05:29:22;95539.63;;;6.06;100.00
70506;BME280;58032;49.820;6.274;2024-02-26T05:31:49;95535.00;;;6.32;100.00
70506;BME280;58032;49.820;6.274;2024-02-26T05:34:16;95542.72;;;6.23;100.00
70506;BME280;58032;49.820;6.274;2024-02-26T05:36:43;95541.19;;;6.22;100.00
70506;BME280;58032;49.820;6.274;2024-02-26T05:39:10;95549.09;;;6.38;100.00
70506;BME280;58032;49.820;6.274;2024-02-26T05:41:40;95546.13;;;6.27;100.00
70506;BME280;58032;49.820;6.274;2024-02-26T05:44:09;95554.09;;;6.19;100.00
70506;BME280;58032;49.820;6.274;2024-02-26T05:46:37;95551.59;;;6.36;100.00
70506;BME280;58032;49.820;6.274;2024-02-26T05:49:04;95558.16;;;6.33;100.00
70506;BME280;58032;49.820;6.274;2024-02-26T05:51:31;95561.44;;;6.31;100.00
70506;BME280;58032;49.820;6.274;2024-02-26T05:53:58;95559.13;;;6.30;100.00
70506;BME280;58032;49.820;6.274;2024-02-26T05:56:25;95564.03;;;6.05;100.00
70506;BME280;58032;49.820;6.274;2024-02-26T05:58:52;95571.31;;;6.02;100.00
70506;BME280;58032;49.820;6.274;2024-02-26T06:01:20;95564.59;;;6.09;100.00
70506;BME280;58032;49.820;6.274;2024-02-26T06:03:48;95566.91;;;6.11;100.00
70506;BME280;58032;49.820;6.274;2024-02-26T06:06:15;95565.16;;;6.13;100.00
70506;BME280;58032;49.820;6.274;2024-02-26T06:08:42;95571.28;;;6.27;100.00
70506;BME280;58032;49.820;6.274;2024-02-26T06:11:09;95571.34;;;6.32;100.00
70506;BME280;58032;49.820;6.274;2024-02-26T06:13:36;95573.75;;;6.25;100.00
70506;BME280;58032;49.820;6.274;2024-02-26T06:16:03;95584.25;;;6.30;100.00
70506;BME280;58032;49.820;6.274;2024-02-26T06:18:31;95576.66;;;6.30;100.00
70506;BME280;58032;49.820;6.274;2024-02-26T06:20:58;95590.72;;;6.36;100.00
70506;BME280;58032;49.820;6.274;2024-02-26T06:23:26;95596.69;;;6.29;100.00
70506;BME280;58032;49.820;6.274;2024-02-26T06:25:53;95597.47;;;6.29;100.00
70506;BME280;58032;49.820;6.274;2024-02-26T06:28:20;95592.16;;;6.16;100.00
70506;BME280;58032;49.820;6.274;2024-02-26T06:30:47;95584.38;;;6.21;100.00
70506;BME280;58032;49.820;6.274;2024-02-26T06:33:14;95595.91;;;6.13;100.00
70506;BME280;58032;49.820;6.274;2024-02-26T06:35:41;95595.56;;;6.21;100.00
70506;BME280;58032;49.820;6.274;2024-02-26T06:38:08;95602.28;;;6.14;100.00
70506;BME280;58032;49.820;6.274;2024-02-26T06:40:36;95599.84;;;5.82;100.00
70506;BME280;58032;49.820;6.274;2024-02-26T06:43:03;95616.13;;;6.08;100.00
70506;BME280;58032;49.820;6.274;2024-02-26T06:45:30;95621.72;;;6.08;100.00
70506;BME280;58032;49.820;6.274;2024-02-26T06:47:57;95630.78;;;6.03;100.00
70506;BME280;58032;49.820;6.274;2024-02-26T06:50:24;95618.03;;;6.02;100.00
70506;BME280;58032;49.820;6.274;2024-02-26T06:52:51;95622.97;;;6.07;100.00
70506;BME280;58032;49.820;6.274;2024-02-26T06:55:18;95617.13;;;6.20;100.00
70506;BME280;58032;49.820;6.274;2024-02-26T06:57:45;95624.22;;;6.06;100.00
70506;BME280;58032;49.820;6.274;2024-02-26T07:00:13;95634.66;;;5.96;100.00
70506;BME280;58032;49.820;6.274;2024-02-26T07:02:43;95640.53;;;6.23;100.00
70506;BME280;58032;49.820;6.274;2024-02-26T07:05:10;95636.06;;;6.01;100.00
70506;BME280;58032;49.820;6.274;2024-02-26T07:07:37;95643.44;;;5.80;100.00
70506;BME280;58032;49.820;6.274;2024-02-26T07:10:05;95643.00;;;6.06;100.00
70506;BME280;58032;49.820;6.274;2024-02-26T07:12:33;95643.81;;;5.97;100.00
70506;BME280;58032;49.820;6.274;2024-02-26T07:15:00;95648.00;;;6.01;100.00
70506;BME280;58032;49.820;6.274;2024-02-26T07:17:27;95641.50;;;5.95;100.00
70506;BME280;58032;49.820;6.274;2024-02-26T07:19:54;95643.69;;;6.15;100.00
70506;BME280;58032;49.820;6.274;2024-02-26T07:22:21;95648.56;;;6.30;100.00
70506;BME280;58032;49.820;6.274;2024-02-26T07:24:48;95654.44;;;6.32;100.00
70506;BME280;58032;49.820;6.274;2024-02-26T07:27:15;95664.81;;;6.16;100.00
70506;BME280;58032;49.820;6.274;2024-02-26T07:29:44;95666.53;;;6.53;100.00
70506;BME280;58032;49.820;6.274;2024-02-26T07:32:11;95662.47;;;6.39;100.00
70506;BME280;58032;49.820;6.274;2024-02-26T07:34:38;95669.09;;;6.27;100.00
70506;BME280;58032;49.820;6.274;2024-02-26T07:37:08;95678.66;;;6.50;100.00
70506;BME280;58032;49.820;6.274;2024-02-26T07:39:35;95683.28;;;6.38;100.00
70506;BME280;58032;49.820;6.274;2024-02-26T07:42:03;95683.97;;;6.48;100.00
70506;BME280;58032;49.820;6.274;2024-02-26T07:44:31;95691.25;;;6.30;100.00
70506;BME280;58032;49.820;6.274;2024-02-26T07:46:58;95690.91;;;6.53;100.00
70506;BME280;58032;49.820;6.274;2024-02-26T07:49:25;95696.31;;;6.41;100.00
70506;BME280;58032;49.820;6.274;2024-02-26T07:51:52;95703.06;;;6.49;100.00
70506;BME280;58032;49.820;6.274;2024-02-26T07:54:19;95711.22;;;6.38;100.00
70506;BME280;58032;49.820;6.274;2024-02-26T07:56:46;95713.13;;;6.32;100.00
70506;BME280;58032;49.820;6.274;2024-02-26T07:59:13;95712.00;;;6.39;100.00
70506;BME280;58032;49.820;6.274;2024-02-26T08:01:40;95721.81;;;6.34;100.00
70506;BME280;58032;49.820;6.274;2024-02-26T08:04:08;95717.13;;;6.55;100.00
70506;BME280;58032;49.820;6.274;2024-02-26T08:06:35;95728.59;;;6.42;100.00
70506;BME280;58032;49.820;6.274;2024-02-26T08:09:03;95729.13;;;6.56;100.00
70506;BME280;58032;49.820;6.274;2024-02-26T08:11:31;95725.91;;;6.48;100.00
70506;BME280;58032;49.820;6.274;2024-02-26T08:13:58;95721.97;;;6.55;100.00
70506;BME280;58032;49.820;6.274;2024-02-26T08:16:26;95728.81;;;6.54;100.00
70506;BME280;58032;49.820;6.274;2024-02-26T08:18:53;95730.44;;;6.45;100.00
70506;BME280;58032;49.820;6.274;2024-02-26T08:21:20;95732.78;;;6.62;100.00
70506;BME280;58032;49.820;6.274;2024-02-26T08:23:47;95733.78;;;6.74;100.00
70506;BME280;58032;49.820;6.274;2024-02-26T08:26:14;95738.88;;;6.60;100.00
70506;BME280;58032;49.820;6.274;2024-02-26T08:28:41;95740.78;;;6.93;100.00
70506;BME280;58032;49.820;6.274;2024-02-26T08:31:08;95733.66;;;6.68;100.00
70506;BME280;58032;49.820;6.274;2024-02-26T08:33:35;95736.66;;;6.64;100.00
70506;BME280;58032;49.820;6.274;2024-02-26T08:36:06;95734.09;;;6.91;100.00
70506;BME280;58032;49.820;6.274;2024-02-26T08:38:33;95742.59;;;6.81;100.00
70506;BME280;58032;49.820;6.274;2024-02-26T08:41:02;95734.38;;;6.93;100.00
70506;BME280;58032;49.820;6.274;2024-02-26T08:43:29;95733.66;;;6.68;100.00
70506;BME280;58032;49.820;6.274;2024-02-26T08:45:57;95736.19;;;6.66;100.00
70506;BME280;58032;49.820;6.274;2024-02-26T08:48:24;95737.88;;;7.03;100.00
70506;BME280;58032;49.820;6.274;2024-02-26T08:50:51;95739.69;;;6.91;100.00
70506;BME280;58032;49.820;6.274;2024-02-26T08:53:18;95738.66;;;7.03;100.00
70506;BME280;58032;49.820;6.274;2024-02-26T08:55:49;95742.03;;;7.07;100.00
70506;BME280;58032;49.820;6.274;2024-02-26T08:58:18;95751.84;;;6.88;100.00
70506;BME280;58032;49.820;6.274;2024-02-26T09:00:45;95748.78;;;7.16;100.00
70506;BME280;58032;49.820;6.274;2024-02-26T09:03:12;95762.47;;;7.13;100.00
70506;BME280;58032;49.820;6.274;2024-02-26T09:05:39;95759.28;;;7.21;100.00
70506;BME280;58032;49.820;6.274;2024-02-26T09:08:06;95763.63;;;7.22;100.00
70506;BME280;58032;49.820;6.274;2024-02-26T09:10:33;95764.03;;;7.15;100.00
70506;BME280;58032;49.820;6.274;2024-02-26T09:13:00;95770.59;;;7.26;100.00
70506;BME280;58032;49.820;6.274;2024-02-26T09:15:27;95776.00;;;7.60;100.00
70506;BME280;58032;49.820;6.274;2024-02-26T09:17:55;95781.13;;;7.32;100.00
70506;BME280;58032;49.820;6.274;2024-02-26T09:20:22;95784.69;;;7.17;100.00
70506;BME280;58032;49.820;6.274;2024-02-26T09:22:50;95788.94;;;7.27;100.00
70506;BME280;58032;49.820;6.274;2024-02-26T09:25:17;95784.13;;;7.58;100.00
70506;BME280;58032;49.820;6.274;2024-02-26T09:27:44;95788.84;;;7.22;100.00
70506;BME280;58032;49.820;6.274;2024-02-26T09:30:13;95781.69;;;7.66;100.00
70506;BME280;58032;49.820;6.274;2024-02-26T09:32:40;95793.78;;;7.42;100.00
70506;BME280;58032;49.820;6.274;2024-02-26T09:35:07;95791.56;;;7.31;100.00
70506;BME280;58032;49.820;6.274;2024-02-26T09:37:34;95784.13;;;7.43;100.00
70506;BME280;58032;49.820;6.274;2024-02-26T09:40:04;95793.38;;;7.49;100.00
70506;BME280;58032;49.820;6.274;2024-02-26T09:42:34;95796.28;;;7.70;100.00
70506;BME280;58032;49.820;6.274;2024-02-26T09:45:05;95796.94;;;7.80;100.00
70506;BME280;58032;49.820;6.274;2024-02-26T09:47:36;95807.66;;;7.81;100.00
70506;BME280;58032;49.820;6.274;2024-02-26T09:50:05;95810.19;;;7.64;100.00
70506;BME280;58032;49.820;6.274;2024-02-26T09:52:37;95818.38;;;7.98;100.00
70506;BME280;58032;49.820;6.274;2024-02-26T09:55:07;95824.34;;;8.05;100.00
70506;BME280;58032;49.820;6.274;2024-02-26T09:57:44;95825.25;;;7.82;100.00
70506;BME280;58032;49.820;6.274;2024-02-26T10:00:17;95833.53;;;8.06;100.00
70506;BME280;58032;49.820;6.274;2024-02-26T10:02:46;95834.03;;;8.04;100.00
70506;BME280;58032;49.820;6.274;2024-02-26T10:05:17;95839.91;;;8.06;100.00
70506;BME280;58032;49.820;6.274;2024-02-26T10:07:47;95838.09;;;8.03;100.00
70506;BME280;58032;49.820;6.274;2024-02-26T10:10:15;95833.09;;;8.28;100.00
70506;BME280;58032;49.820;6.274;2024-02-26T10:12:42;95842.19;;;8.38;100.00
70506;BME280;58032;49.820;6.274;2024-02-26T10:15:10;95848.63;;;8.08;100.00
70506;BME280;58032;49.820;6.274;2024-02-26T10:17:37;95854.97;;;8.24;100.00
70506;BME280;58032;49.820;6.274;2024-02-26T10:20:16;95851.56;;;8.50;100.00
70506;BME280;58032;49.820;6.274;2024-02-26T10:22:49;95858.56;;;8.10;100.00
70506;BME280;58032;49.820;6.274;2024-02-26T10:25:16;95862.91;;;8.11;100.00
70506;BME280;58032;49.820;6.274;2024-02-26T10:27:43;95867.13;;;8.21;100.00
70506;BME280;58032;49.820;6.274;2024-02-26T10:30:20;95864.63;;;8.23;100.00
70506;BME280;58032;49.820;6.274;2024-02-26T10:32:51;95872.50;;;7.89;100.00
70506;BME280;58032;49.820;6.274;2024-02-26T10:35:19;95876.03;;;8.19;100.00
70506;BME280;58032;49.820;6.274;2024-02-26T10:37:50;95867.81;;;8.66;100.00
70506;BME280;58032;49.820;6.274;2024-02-26T10:40:17;95880.97;;;8.75;100.00
70506;BME280;58032;49.820;6.274;2024-02-26T10:42:44;95880.41;;;8.71;100.00
70506;BME280;58032;49.820;6.274;2024-02-26T10:45:14;95887.47;;;8.66;100.00
70506;BME280;58032;49.820;6.274;2024-02-26T10:47:41;95881.63;;;8.85;100.00
70506;BME280;58032;49.820;6.274;2024-02-26T10:50:09;95876.25;;;8.66;100.00
70506;BME280;58032;49.820;6.274;2024-02-26T10:52:36;95875.56;;;9.13;100.00
70506;BME280;58032;49.820;6.274;2024-02-26T10:55:05;95877.97;;;8.99;100.00
70506;BME280;58032;49.820;6.274;2024-02-26T10:57:39;95877.00;;;9.02;100.00
70506;BME280;58032;49.820;6.274;2024-02-26T11:00:07;95871.91;;;8.65;100.00
70506;BME280;58032;49.820;6.274;2024-02-26T11:02:38;95882.16;;;8.18;100.00
70506;BME280;58032;49.820;6.274;2024-02-26T11:05:07;95892.09;;;8.49;100.00
70506;BME280;58032;49.820;6.274;2024-02-26T11:07:35;95884.06;;;8.77;100.00
70506;BME280;58032;49.820;6.274;2024-02-26T11:10:04;95893.16;;;9.81;100.00
70506;BME280;58032;49.820;6.274;2024-02-26T11:12:32;95891.41;;;8.75;100.00
70506;BME280;58032;49.820;6.274;2024-02-26T11:15:03;95900.94;;;8.62;100.00
70506;BME280;58032;49.820;6.274;2024-02-26T11:17:31;95898.75;;;8.87;100.00
70506;BME280;58032;49.820;6.274;2024-02-26T11:20:02;95910.91;;;8.99;100.00
70506;BME280;58032;49.820;6.274;2024-02-26T11:22:29;95914.03;;;9.27;100.00
70506;BME280;58032;49.820;6.274;2024-02-26T11:24:57;95921.06;;;9.17;100.00
70506;BME280;58032;49.820;6.274;2024-02-26T11:27:28;95925.56;;;9.09;100.00
70506;BME280;58032;49.820;6.274;2024-02-26T11:29:57;95930.75;;;9.16;100.00
70506;BME280;58032;49.820;6.274;2024-02-26T11:32:27;95930.81;;;9.01;100.00
70506;BME280;58032;49.820;6.274;2024-02-26T11:34:58;95936.59;;;9.12;100.00
70506;BME280;58032;49.820;6.274;2024-02-26T11:37:25;95936.81;;;9.50;100.00
70506;BME280;58032;49.820;6.274;2024-02-26T11:39:52;95933.53;;;9.78;100.00
70506;BME280;58032;49.820;6.274;2024-02-26T11:42:23;95937.72;;;10.14;100.00
70506;BME280;58032;49.820;6.274;2024-02-26T11:44:52;95934.41;;;10.16;100.00
70506;BME280;58032;49.820;6.274;2024-02-26T11:47:21;95936.22;;;10.19;100.00
70506;BME280;58032;49.820;6.274;2024-02-26T11:49:49;95934.91;;;10.41;100.00
70506;BME280;58032;49.820;6.274;2024-02-26T11:52:16;95937.31;;;10.01;100.00
70506;BME280;58032;49.820;6.274;2024-02-26T11:57:37;95934.72;;;9.97;100.00
70506;BME280;58032;49.820;6.274;2024-02-26T12:00:11;95934.19;;;9.46;100.00
70506;BME280;58032;49.820;6.274;2024-02-26T12:05:21;95933.81;;;9.59;100.00
70506;BME280;58032;49.820;6.274;2024-02-26T12:07:55;95938.91;;;9.55;100.00
70506;BME280;58032;49.820;6.274;2024-02-26T12:15:32;95942.22;;;9.54;100.00
70506;BME280;58032;49.820;6.274;2024-02-26T12:18:03;95942.69;;;9.11;100.00
70506;BME280;58032;49.820;6.274;2024-02-26T12:20:31;95934.47;;;9.07;100.00
70506;BME280;58032;49.820;6.274;2024-02-26T12:22:58;95944.25;;;9.32;100.00
70506;BME280;58032;49.820;6.274;2024-02-26T12:25:29;95947.69;;;9.42;100.00
70506;BME280;58032;49.820;6.274;2024-02-26T12:27:56;95939.25;;;9.22;100.00
70506;BME280;58032;49.820;6.274;2024-02-26T12:30:24;95945.06;;;9.59;100.00
70506;BME280;58032;49.820;6.274;2024-02-26T12:33:17;95957.66;;;9.43;100.00
70506;BME280;58032;49.820;6.274;2024-02-26T12:35:44;95958.84;;;9.37;100.00
70506;BME280;58032;49.820;6.274;2024-02-26T12:38:15;95957.31;;;9.56;100.00
70506;BME280;58032;49.820;6.274;2024-02-26T12:40:42;95961.28;;;9.70;100.00
70506;BME280;58032;49.820;6.274;2024-02-26T12:43:09;95966.13;;;9.70;100.00
70506;BME280;58032;49.820;6.274;2024-02-26T12:45:42;95964.47;;;9.37;100.00
70506;BME280;58032;49.820;6.274;2024-02-26T12:48:13;95969.81;;;9.55;100.00
70506;BME280;58032;49.820;6.274;2024-02-26T12:50:44;95972.69;;;9.61;100.00
70506;BME280;58032;49.820;6.274;2024-02-26T12:53:12;95975.00;;;9.42;100.00
70506;BME280;58032;49.820;6.274;2024-02-26T12:55:39;95975.75;;;9.84;100.00
70506;BME280;58032;49.820;6.274;2024-02-26T12:58:07;95984.56;;;9.50;100.00
70506;BME280;58032;49.820;6.274;2024-02-26T13:00:34;95977.25;;;9.38;100.00
70506;BME280;58032;49.820;6.274;2024-02-26T13:03:02;95981.38;;;9.84;100.00
70506;BME280;58032;49.820;6.274;2024-02-26T13:05:29;95978.91;;;9.91;100.00
70506;BME280;58032;49.820;6.274;2024-02-26T13:07:56;95987.84;;;9.28;100.00
70506;BME280;58032;49.820;6.274;2024-02-26T13:10:24;95994.50;;;9.10;100.00
70506;BME280;58032;49.820;6.274;2024-02-26T13:12:52;95993.97;;;9.47;100.00